Time;durP1;ratioP1;P1;durP2;ratioP2;P2;SDS_P1;SDS_P2;PMS_P1;PMS_P2;Temp;Humidity;BMP_temperature;BMP_pressure;BME280_temperature;BME280_humidity;BME280_pressure;Samples;Min_cycle;Max_cycle;Signal;HPM_P1;HPM_P2
2023/07/31 00:00:50;;;;;;;3.15;1.45;;;17.90;66.50;;;16.94;80.99;96102.50;4986023;28;20038;-69
2023/07/31 00:03:16;;;;;;;4.82;2.33;;;17.90;66.60;;;16.91;80.99;96105.63;4984773;28;20070;-69
2023/07/31 00:05:41;;;;;;;4.25;1.83;;;17.80;66.60;;;16.89;80.87;96105.06;4984627;28;20058;-73
2023/07/31 00:08:07;;;;;;;6.30;1.98;;;17.80;66.30;;;16.85;81.75;96111.88;4986919;28;20401;-71
2023/07/31 00:10:33;;;;;;;2.75;1.42;;;17.80;67.00;;;16.80;81.76;96115.22;4981542;28;20161;-70
2023/07/31 00:12:59;;;;;;;4.75;1.90;;;17.70;67.10;;;16.79;82.00;96118.09;4983230;28;20078;-70
2023/07/31 00:15:25;;;;;;;5.35;1.60;;;17.70;67.00;;;16.75;82.04;96101.81;4965832;28;20045;-72
2023/07/31 00:17:50;;;;;;;4.57;1.63;;;17.70;66.80;;;16.74;81.07;96110.78;4958675;28;20040;-70
2023/07/31 00:20:16;;;;;;;5.03;1.40;;;17.70;66.30;;;16.74;80.56;96115.28;4985774;28;20458;-70
2023/07/31 00:22:42;;;;;;;4.97;1.98;;;17.70;66.20;;;16.73;81.05;96113.66;4984506;28;20531;-72
2023/07/31 00:25:08;;;;;;;5.10;1.85;;;17.60;66.60;;;16.69;81.20;96120.47;4984953;28;20503;-70
2023/07/31 00:27:33;;;;;;;4.13;1.30;;;17.60;67.00;;;16.66;80.81;96107.63;4958547;28;20053;-70
2023/07/31 00:29:59;;;;;;;4.35;1.98;;;17.60;66.90;;;16.64;81.30;96107.84;4965747;28;20046;-68
2023/07/31 00:32:25;;;;;;;2.90;1.40;;;17.60;66.90;;;16.64;81.79;96121.13;4978959;28;20045;-70
2023/07/31 00:34:51;;;;;;;2.17;1.35;;;17.60;67.00;;;16.64;81.67;96117.66;4983505;28;20109;-69
2023/07/31 00:37:16;;;;;;;4.22;1.67;;;17.60;66.90;;;16.61;81.99;96110.97;4985270;28;20059;-71
2023/07/31 00:39:42;;;;;;;4.13;1.40;;;17.50;67.20;;;16.56;82.38;96102.06;4985608;28;20125;-72
2023/07/31 00:42:08;;;;;;;3.25;1.80;;;17.50;67.20;;;16.54;82.22;96100.44;4984784;28;20113;-69
2023/07/31 00:44:34;;;;;;;2.63;1.30;;;17.40;67.40;;;16.49;82.81;96102.94;4983122;28;20097;-70
2023/07/31 00:46:59;;;;;;;4.45;1.60;;;17.50;67.70;;;16.47;83.34;96099.69;4985324;28;20065;-69
2023/07/31 00:49:26;;;;;;;4.90;1.90;;;17.50;68.00;;;16.47;83.77;96097.06;4963697;28;20156;-70
2023/07/31 00:51:52;;;;;;;3.70;1.70;;;17.50;68.30;;;16.45;84.22;96095.66;4983333;28;20427;-71
2023/07/31 00:54:17;;;;;;;3.88;1.55;;;17.50;68.50;;;16.42;84.49;96094.28;4983969;28;20064;-70
2023/07/31 00:56:45;;;;;;;4.30;1.77;;;17.40;68.00;;;16.39;83.62;96099.22;4953675;28;20450;-70
2023/07/31 00:59:10;;;;;;;3.95;1.40;;;17.30;67.50;;;16.36;83.64;96087.22;4973987;28;20034;-69
2023/07/31 01:01:36;;;;;;;3.88;1.70;;;17.30;67.70;;;16.35;84.26;96090.91;4964768;28;20589;-69
2023/07/31 01:04:02;;;;;;;4.03;1.33;;;17.30;67.80;;;16.35;84.32;96092.75;4982490;28;20568;-71
2023/07/31 01:06:52;;;;;;;3.42;1.38;;;17.30;68.00;;;16.37;86.59;96096.78;4968609;28;20124;-69
2023/07/31 01:09:47;;;;;;;5.68;1.85;;;17.40;68.50;;;16.36;87.58;96095.19;4980323;28;20506;-70
2023/07/31 01:12:15;;;;;;;4.68;1.70;;;17.40;68.90;;;16.36;85.31;96092.53;4968640;28;20045;-70
2023/07/31 01:14:41;;;;;;;4.72;1.80;;;17.40;68.90;;;16.35;86.06;96087.44;4969331;28;20125;-71
2023/07/31 01:17:06;;;;;;;4.53;1.77;;;17.30;68.90;;;16.34;86.27;96089.28;4983513;28;20112;-70
2023/07/31 01:19:32;;;;;;;4.00;1.75;;;17.40;69.00;;;16.32;86.98;96091.34;4965799;28;20691;-69
2023/07/31 01:22:55;;;;;;;4.55;1.80;;;17.40;69.30;;;16.33;88.94;96086.84;4983449;28;20065;-70
2023/07/31 01:25:54;;;;;;;3.83;1.60;;;17.40;69.50;;;16.31;88.19;96083.63;4953745;28;20122;-71
2023/07/31 01:28:25;;;;;;;3.38;1.83;;;17.40;69.10;;;16.30;88.48;96082.00;4986470;28;20132;-71
2023/07/31 01:30:51;;;;;;;3.40;1.63;;;17.40;69.80;;;16.30;88.21;96074.03;4953573;28;20584;-69
2023/07/31 01:33:17;;;;;;;3.60;1.90;;;17.40;69.90;;;16.31;88.26;96073.00;4984435;28;20510;-70
2023/07/31 01:35:45;;;;;;;4.57;1.50;;;17.40;69.50;;;16.28;87.64;96074.22;4952741;28;20141;-70
2023/07/31 01:38:10;;;;;;;4.35;1.73;;;17.30;69.10;;;16.31;87.13;96079.13;4972721;28;20121;-69
2023/07/31 01:40:36;;;;;;;3.40;1.67;;;17.40;68.80;;;16.30;87.46;96077.50;4984182;28;20659;-69
2023/07/31 01:43:02;;;;;;;3.40;1.80;;;17.40;69.10;;;16.29;87.83;96075.84;4988939;28;20074;-71
2023/07/31 01:45:28;;;;;;;3.78;2.10;;;17.40;69.30;;;16.27;87.51;96064.66;4988362;28;20109;-69
2023/07/31 01:47:53;;;;;;;5.30;1.73;;;17.40;68.90;;;16.29;87.40;96061.78;4988556;28;20062;-71
2023/07/31 01:50:19;;;;;;;3.65;1.50;;;17.40;69.10;;;16.26;87.81;96070.19;4967554;28;20199;-69
2023/07/31 01:52:45;;;;;;;4.55;1.73;;;17.30;69.20;;;16.24;87.96;96067.75;4993057;28;20153;-71
2023/07/31 01:55:11;;;;;;;7.97;2.13;;;17.30;69.50;;;16.21;88.26;96069.03;4989567;28;20509;-71
2023/07/31 01:57:37;;;;;;;2.67;1.48;;;17.30;69.60;;;16.17;88.06;96059.09;5002166;28;20058;-70
2023/07/31 02:00:03;;;;;;;6.40;1.73;;;17.20;69.70;;;16.13;88.73;96063.22;4971789;28;20035;-70
2023/07/31 02:02:29;;;;;;;3.80;1.75;;;17.10;69.80;;;16.09;88.62;96059.41;4968026;28;20037;-69
2023/07/31 02:04:55;;;;;;;3.65;1.45;;;17.10;69.90;;;16.06;88.84;96065.13;4971686;28;20058;-70
2023/07/31 02:07:21;;;;;;;6.53;1.88;;;17.10;70.00;;;16.03;89.35;96066.41;4988770;28;20100;-69
2023/07/31 02:09:47;;;;;;;3.15;1.73;;;17.10;70.30;;;15.99;89.96;96064.44;4967898;28;20412;-69
2023/07/31 02:12:14;;;;;;;5.90;2.05;;;17.00;70.70;;;15.96;90.87;96060.38;4969999;28;20042;-70
2023/07/31 02:14:40;;;;;;;6.72;2.13;;;17.00;70.60;;;15.91;89.69;96053.09;4986766;28;20037;-70
2023/07/31 02:17:06;;;;;;;3.97;1.83;;;17.00;70.20;;;15.86;90.59;96052.97;4952554;28;20034;-69
2023/07/31 02:19:32;;;;;;;4.57;1.63;;;16.90;71.00;;;15.83;91.19;96056.03;4989642;28;20038;-70
2023/07/31 02:21:57;;;;;;;3.15;1.70;;;16.80;71.00;;;15.78;90.94;96045.28;4987857;28;20062;-67
2023/07/31 02:24:24;;;;;;;4.28;1.85;;;16.80;71.10;;;15.75;91.49;96048.38;4971009;28;20065;-69
2023/07/31 02:26:50;;;;;;;3.55;1.52;;;16.70;71.00;;;15.72;91.64;96054.13;4954734;28;20546;-69
2023/07/31 02:29:16;;;;;;;3.33;1.60;;;16.70;71.20;;;15.67;92.17;96040.75;4986764;28;20081;-70
2023/07/31 02:31:41;;;;;;;3.88;1.30;;;16.70;71.50;;;15.65;92.93;96040.16;4984955;28;20066;-70
2023/07/31 02:34:07;;;;;;;4.55;1.90;;;16.70;71.90;;;15.62;93.14;96043.25;4989564;28;20090;-69
2023/07/31 02:36:33;;;;;;;3.60;1.77;;;16.60;71.90;;;15.59;93.27;96033.88;5004398;28;20076;-70
2023/07/31 02:38:58;;;;;;;4.13;1.80;;;16.60;71.90;;;15.57;93.24;96030.59;4986280;28;20081;-70
2023/07/31 02:41:24;;;;;;;2.72;1.50;;;16.60;72.20;;;15.56;94.36;96029.00;4988338;28;20065;-70
2023/07/31 02:43:53;;;;;;;3.58;1.80;;;16.60;72.60;;;15.51;94.33;96028.84;4986524;28;20061;-70
2023/07/31 02:46:19;;;;;;;5.13;1.88;;;16.60;72.50;;;15.50;95.18;96024.59;4985935;28;20065;-71
2023/07/31 02:48:45;;;;;;;4.60;1.90;;;16.60;72.60;;;15.52;95.06;96027.00;4985752;28;20042;-70
2023/07/31 02:51:11;;;;;;;5.93;2.08;;;16.60;72.50;;;15.49;95.26;96022.16;4984226;28;20065;-69
2023/07/31 02:53:37;;;;;;;3.47;1.77;;;16.60;72.50;;;15.46;95.03;96026.06;4980646;28;20498;-70
2023/07/31 02:56:02;;;;;;;3.88;1.50;;;16.50;72.80;;;15.43;96.07;96029.16;4979581;28;20031;-72
2023/07/31 02:58:28;;;;;;;4.93;1.80;;;16.50;72.90;;;15.41;95.91;96020.63;4967179;28;20044;-71
2023/07/31 03:00:54;;;;;;;3.55;1.58;;;16.50;73.00;;;15.39;96.41;96021.84;4961744;28;20564;-70
2023/07/31 03:03:19;;;;;;;4.47;2.00;;;16.50;73.00;;;15.35;96.10;96023.31;4980954;28;20413;-70
2023/07/31 03:05:45;;;;;;;4.28;2.20;;;16.40;73.50;;;15.32;96.74;96022.72;4979620;28;20066;-71
2023/07/31 03:08:11;;;;;;;8.82;2.22;;;16.40;73.80;;;15.29;98.23;96012.56;4983806;28;20041;-70
2023/07/31 03:10:37;;;;;;;2.97;2.00;;;16.30;74.10;;;15.28;98.02;96015.44;4999884;28;20112;-71
2023/07/31 03:13:02;;;;;;;5.25;2.10;;;16.30;74.10;;;15.26;98.59;96018.31;4967080;28;20042;-70
2023/07/31 03:15:28;;;;;;;3.92;1.80;;;16.30;74.00;;;15.24;98.83;96025.69;4974785;28;20120;-70
2023/07/31 03:17:54;;;;;;;4.47;1.92;;;16.30;74.00;;;15.24;98.84;96020.38;4966557;28;20125;-70
2023/07/31 03:20:19;;;;;;;3.92;1.98;;;16.30;74.40;;;15.23;98.72;96010.81;4978633;28;20046;-70
2023/07/31 03:22:45;;;;;;;4.20;1.88;;;16.30;74.00;;;15.23;99.86;96016.13;5001121;28;20151;-71
2023/07/31 03:25:11;;;;;;;5.75;2.13;;;16.30;74.30;;;15.25;100.00;96016.69;4980978;28;20035;-70
2023/07/31 03:27:37;;;;;;;5.55;2.00;;;16.40;74.40;;;15.25;100.00;96016.69;4985245;28;20525;-70
2023/07/31 03:30:03;;;;;;;5.07;2.08;;;16.40;74.40;;;15.27;100.00;96016.47;4976373;28;20566;-70
2023/07/31 03:32:29;;;;;;;4.20;2.00;;;16.40;74.20;;;15.28;100.00;96024.22;4984630;28;20042;-69
2023/07/31 03:34:55;;;;;;;4.32;2.20;;;16.50;74.40;;;15.30;99.78;96014.19;4947501;28;20824;-69
2023/07/31 03:37:20;;;;;;;4.28;2.08;;;16.50;74.10;;;15.33;99.76;96024.34;4982260;28;20055;-69
2023/07/31 03:39:46;;;;;;;5.15;2.42;;;16.60;73.20;;;15.39;99.70;96029.78;4959475;28;20039;-69
2023/07/31 03:42:12;;;;;;;7.18;2.17;;;16.60;73.10;;;15.42;100.00;96026.72;4985302;28;20030;-72
2023/07/31 03:44:37;;;;;;;5.00;2.05;;;16.60;73.30;;;15.44;99.08;96025.47;4968117;28;20121;-73
2023/07/31 03:47:03;;;;;;;3.55;1.98;;;16.60;73.10;;;15.45;98.63;96027.09;4967258;28;20043;-70
2023/07/31 03:49:29;;;;;;;4.35;2.00;;;16.60;73.10;;;15.48;98.11;96028.50;4979148;28;20031;-70
2023/07/31 03:51:55;;;;;;;3.92;1.70;;;16.60;73.00;;;15.50;98.33;96027.22;4984610;28;20073;-70
2023/07/31 03:54:21;;;;;;;5.40;2.05;;;16.60;73.00;;;15.52;97.94;96029.66;4976679;28;20030;-70
2023/07/31 03:56:47;;;;;;;5.10;2.13;;;16.60;72.80;;;15.53;97.73;96026.78;4994609;28;20081;-68
2023/07/31 03:59:12;;;;;;;6.70;2.10;;;16.70;72.60;;;15.54;97.96;96019.66;4981135;28;20066;-68
2023/07/31 04:01:38;;;;;;;4.70;1.88;;;16.70;72.60;;;15.56;97.63;96022.88;4982961;28;20124;-68
2023/07/31 04:04:05;;;;;;;5.32;2.10;;;16.60;72.40;;;15.57;97.04;96024.50;4985514;28;20058;-67
2023/07/31 04:06:30;;;;;;;8.52;1.90;;;16.70;72.30;;;15.61;96.55;96020.41;4987050;28;20492;-68
2023/07/31 04:08:56;;;;;;;4.72;1.90;;;16.70;72.20;;;15.61;97.13;96015.09;4984255;28;20031;-68
2023/07/31 04:11:22;;;;;;;5.68;1.83;;;16.70;72.10;;;15.63;96.52;96013.06;4986307;28;20026;-68
2023/07/31 04:13:47;;;;;;;7.38;2.15;;;16.70;72.00;;;15.65;96.33;96011.00;4971451;28;20042;-68
2023/07/31 04:16:13;;;;;;;4.78;2.30;;;16.80;71.90;;;15.67;96.46;96010.75;4969944;28;20046;-68
2023/07/31 04:18:39;;;;;;;7.43;2.40;;;16.80;71.80;;;15.69;95.64;96006.84;4974339;28;20049;-69
2023/07/31 04:21:05;;;;;;;4.50;2.00;;;16.80;71.80;;;15.72;95.91;96002.94;4985938;28;20039;-69
2023/07/31 04:23:30;;;;;;;4.07;1.80;;;16.90;71.60;;;15.75;95.95;96011.25;4969135;28;20027;-68
2023/07/31 04:25:56;;;;;;;3.55;1.88;;;17.00;71.50;;;15.81;96.42;96007.72;4983540;28;20030;-68
2023/07/31 04:28:22;;;;;;;3.13;1.77;;;17.10;71.60;;;15.85;95.97;96010.75;4969165;28;20534;-68
2023/07/31 04:30:48;;;;;;;5.45;2.10;;;17.10;71.50;;;15.89;96.08;96009.25;4985973;28;20508;-69
2023/07/31 04:33:13;;;;;;;4.60;2.08;;;17.20;71.30;;;15.91;96.12;96010.66;4987204;28;20470;-68
2023/07/31 04:35:39;;;;;;;4.30;2.28;;;17.20;71.10;;;15.96;95.89;96007.31;4983213;28;20050;-69
2023/07/31 04:38:05;;;;;;;3.47;1.85;;;17.20;71.00;;;15.97;95.15;96008.13;4987769;28;20035;-68
2023/07/31 04:40:30;;;;;;;3.95;2.08;;;17.20;70.80;;;16.00;95.58;96007.69;4988580;28;20049;-69
2023/07/31 04:42:56;;;;;;;4.68;2.33;;;17.30;71.00;;;16.03;95.01;96007.22;4970932;28;20054;-69
2023/07/31 04:45:22;;;;;;;6.22;1.95;;;17.20;71.10;;;16.06;95.78;96006.75;5002194;28;20062;-69
2023/07/31 04:47:48;;;;;;;4.60;2.30;;;17.30;71.30;;;16.09;95.31;96007.16;4968369;28;20031;-68
2023/07/31 04:50:13;;;;;;;7.90;2.38;;;17.30;71.00;;;16.10;95.31;95998.16;4986385;28;20041;-69
2023/07/31 04:52:39;;;;;;;4.63;2.08;;;17.40;70.90;;;16.10;95.79;95994.69;4972201;28;20561;-70
2023/07/31 04:55:05;;;;;;;3.17;1.75;;;17.40;71.00;;;16.14;94.99;96001.16;4985446;28;20042;-70
2023/07/31 04:57:31;;;;;;;5.47;1.95;;;17.40;70.60;;;16.13;95.31;95996.91;4987143;28;20031;-70
2023/07/31 04:59:56;;;;;;;3.55;1.98;;;17.50;70.70;;;16.17;95.30;95987.44;4980602;28;20031;-70
2023/07/31 05:02:22;;;;;;;2.65;1.58;;;17.50;70.70;;;16.18;95.06;95989.88;4986546;28;20049;-69
2023/07/31 05:04:48;;;;;;;7.65;1.92;;;17.50;70.60;;;16.21;95.22;95985.94;4986658;28;20054;-69
2023/07/31 05:07:13;;;;;;;3.67;1.92;;;17.60;70.40;;;16.22;94.59;95984.91;4972301;28;20050;-69
2023/07/31 05:09:39;;;;;;;4.13;1.73;;;17.60;70.40;;;16.28;94.86;95983.19;4970698;28;20077;-70
2023/07/31 05:12:05;;;;;;;3.42;2.00;;;17.60;70.30;;;16.32;95.05;95995.78;4978645;28;20055;-70
2023/07/31 05:14:31;;;;;;;6.05;2.22;;;17.70;70.20;;;16.33;95.31;95992.09;4988353;28;20046;-69
2023/07/31 05:16:57;;;;;;;6.40;2.00;;;17.80;69.90;;;16.39;94.77;95996.50;4971664;28;20510;-70
2023/07/31 05:19:23;;;;;;;5.10;2.33;;;17.80;69.70;;;16.44;94.93;96003.78;4987911;28;20100;-69
2023/07/31 05:21:48;;;;;;;3.63;2.70;;;17.90;70.10;;;16.50;94.35;95998.34;4987769;28;20038;-70
2023/07/31 05:24:14;;;;;;;5.10;2.20;;;18.00;69.80;;;16.57;94.90;96006.22;4955224;28;20034;-70
2023/07/31 05:26:40;;;;;;;5.10;2.25;;;18.10;69.90;;;16.67;95.39;96008.34;4986947;28;20058;-70
2023/07/31 05:29:06;;;;;;;4.60;1.88;;;18.30;69.70;;;16.74;95.42;95993.91;4986103;28;20039;-69
2023/07/31 05:31:32;;;;;;;5.13;2.10;;;18.40;69.60;;;16.87;95.05;95995.53;4981478;28;20029;-70
2023/07/31 05:33:58;;;;;;;4.55;2.10;;;18.60;69.00;;;16.94;93.95;95998.88;4980928;28;20572;-69
2023/07/31 05:36:23;;;;;;;5.53;2.17;;;18.60;68.20;;;17.04;93.16;95999.13;4970885;28;20038;-70
2023/07/31 05:38:49;;;;;;;4.95;2.10;;;18.70;68.00;;;17.15;92.49;96000.97;4987308;28;20046;-69
2023/07/31 05:41:15;;;;;;;3.63;1.90;;;18.80;67.70;;;17.25;92.31;95995.06;4970512;28;20388;-69
2023/07/31 05:43:42;;;;;;;3.88;1.90;;;19.00;67.30;;;17.35;92.23;96000.59;4965939;28;20434;-70
2023/07/31 05:46:09;;;;;;;5.57;2.03;;;19.10;67.00;;;17.46;90.91;96001.63;4986201;28;20038;-69
2023/07/31 05:48:37;;;;;;;4.03;2.03;;;19.20;66.40;;;17.59;91.76;96004.00;4987867;28;20049;-71
2023/07/31 05:51:03;;;;;;;3.42;1.95;;;19.40;66.60;;;17.70;90.90;96003.22;4967400;28;20038;-70
2023/07/31 05:53:28;;;;;;;8.90;2.10;;;19.50;66.50;;;17.79;90.80;96001.00;4953892;28;20026;-70
2023/07/31 05:55:54;;;;;;;3.97;1.90;;;19.50;65.90;;;17.89;89.23;96000.41;4969615;28;20073;-69
2023/07/31 05:58:20;;;;;;;3.58;1.83;;;19.50;65.70;;;17.96;89.92;95996.53;4982913;28;20062;-70
2023/07/31 06:00:46;;;;;;;4.53;1.80;;;19.60;65.90;;;18.02;89.33;95995.59;4982411;28;20402;-70
2023/07/31 06:03:11;;;;;;;4.97;1.80;;;19.60;65.70;;;18.06;89.41;95998.56;4986018;28;20624;-69
2023/07/31 06:05:37;;;;;;;4.57;2.25;;;19.60;66.00;;;18.11;88.29;96004.00;4968311;28;20134;-70
2023/07/31 06:08:03;;;;;;;5.15;1.90;;;19.60;65.70;;;18.14;88.59;96003.53;4982689;28;20042;-71
2023/07/31 06:10:29;;;;;;;4.80;1.75;;;19.60;66.40;;;18.18;88.57;96007.31;4986094;28;20034;-70
2023/07/31 06:12:54;;;;;;;4.35;1.88;;;19.60;65.80;;;18.21;88.04;96008.69;4966012;28;20038;-70
2023/07/31 06:15:20;;;;;;;5.15;1.73;;;19.70;66.20;;;18.24;88.21;96009.03;4956774;28;20093;-71
2023/07/31 06:17:46;;;;;;;6.43;2.13;;;19.70;65.20;;;18.24;87.10;96002.88;4986316;28;20074;-69
2023/07/31 06:20:12;;;;;;;3.95;2.00;;;19.60;64.80;;;18.22;87.19;96005.00;4985079;28;20041;-70
2023/07/31 06:22:37;;;;;;;4.88;1.75;;;19.60;65.70;;;18.23;86.95;95999.44;4968755;28;20350;-70
2023/07/31 06:25:04;;;;;;;5.40;1.92;;;19.70;65.40;;;18.25;86.19;96000.00;4954239;28;20031;-71
2023/07/31 06:27:29;;;;;;;4.35;1.83;;;19.70;65.20;;;18.33;87.00;95996.97;4972403;28;20114;-70
2023/07/31 06:29:55;;;;;;;5.15;1.90;;;19.90;65.30;;;18.34;85.93;95998.56;4988749;28;20062;-70
2023/07/31 06:32:21;;;;;;;4.40;2.08;;;19.80;64.70;;;18.39;85.23;95989.03;4960030;28;20039;-70
2023/07/31 06:34:47;;;;;;;3.63;2.08;;;19.90;64.10;;;18.41;85.46;95986.94;4965874;28;20054;-71
2023/07/31 06:37:12;;;;;;;5.25;1.95;;;20.10;64.10;;;18.48;86.07;95998.25;4942862;28;20034;-70
2023/07/31 06:39:38;;;;;;;3.50;2.00;;;20.10;64.70;;;18.54;85.27;95997.28;4989218;28;20026;-71
2023/07/31 06:42:04;;;;;;;3.63;1.55;;;20.20;63.80;;;18.63;85.19;96003.88;4988775;28;20045;-69
2023/07/31 06:44:30;;;;;;;3.80;1.80;;;20.40;64.30;;;18.71;85.87;96002.66;4992083;28;20030;-71
2023/07/31 06:46:56;;;;;;;4.40;1.95;;;20.50;64.10;;;18.76;84.73;95995.53;4972860;28;20038;-70
2023/07/31 06:49:21;;;;;;;3.75;1.67;;;20.50;63.60;;;18.78;84.54;95990.78;4988759;28;20109;-71
2023/07/31 06:51:47;;;;;;;4.72;1.80;;;20.40;63.60;;;18.82;84.54;95988.44;4990699;28;20085;-70
2023/07/31 06:54:13;;;;;;;5.20;1.92;;;20.50;63.30;;;18.89;83.16;95978.41;4990657;28;20066;-70
2023/07/31 06:56:38;;;;;;;2.75;1.67;;;20.70;62.50;;;19.02;84.00;95979.94;4989277;28;20429;-70
2023/07/31 06:59:04;;;;;;;4.63;2.00;;;21.10;62.30;;;19.20;84.58;95974.31;4971178;28;20510;-70
2023/07/31 07:01:30;;;;;;;4.40;1.85;;;21.60;61.40;;;19.43;84.11;95979.44;4990200;28;20030;-70
2023/07/31 07:03:56;;;;;;;3.03;1.67;;;21.80;60.30;;;19.58;82.79;95966.31;4968224;28;20065;-70
2023/07/31 07:06:22;;;;;;;5.47;1.67;;;22.00;59.60;;;19.79;81.39;95967.38;4956221;28;20173;-70
2023/07/31 07:08:48;;;;;;;3.10;1.63;;;22.10;58.80;;;19.94;80.59;95973.94;4969514;28;20122;-70
2023/07/31 07:11:14;;;;;;;4.45;1.70;;;22.00;57.80;;;20.01;78.93;95963.84;4969756;28;20558;-71
2023/07/31 07:13:39;;;;;;;4.78;2.25;;;21.90;58.30;;;20.03;77.75;95973.22;4963119;28;20050;-70
2023/07/31 07:16:05;;;;;;;3.83;1.52;;;21.60;58.40;;;20.00;77.95;95972.94;4971297;28;20118;-70
2023/07/31 07:18:31;;;;;;;5.20;1.83;;;21.60;59.10;;;20.01;76.84;95970.00;4988789;28;20568;-70
2023/07/31 07:20:58;;;;;;;3.67;1.67;;;21.70;58.70;;;20.02;76.90;95968.13;4988463;28;20030;-69
2023/07/31 07:23:23;;;;;;;3.63;1.90;;;21.70;58.70;;;20.10;76.86;95965.81;4986096;28;20110;-71
2023/07/31 07:25:49;;;;;;;7.57;1.73;;;22.00;58.50;;;20.15;75.96;95971.22;4987155;28;20138;-71
2023/07/31 07:28:15;;;;;;;5.47;1.90;;;22.00;57.70;;;20.28;75.73;95961.19;4969653;28;20039;-70
2023/07/31 07:30:40;;;;;;;6.45;1.95;;;22.40;57.00;;;20.41;74.81;95958.13;4973152;28;20088;-70
2023/07/31 07:33:06;;;;;;;4.07;1.38;;;22.60;56.10;;;20.50;75.06;95967.28;4954035;28;20510;-71
2023/07/31 07:35:35;;;;;;;5.72;1.70;;;22.60;56.20;;;20.61;74.86;95958.31;4971336;28;20042;-71
2023/07/31 07:38:04;;;;;;;2.88;1.50;;;22.60;56.80;;;20.74;73.45;95944.50;4985873;28;20513;-71
2023/07/31 07:40:30;;;;;;;5.60;1.85;;;23.10;54.60;;;20.99;74.34;95959.09;4987612;28;20521;-71
2023/07/31 07:42:56;;;;;;;3.35;1.50;;;23.80;54.50;;;21.27;73.70;95950.72;4989846;28;20034;-70
2023/07/31 07:45:21;;;;;;;3.55;1.77;;;24.20;52.50;;;21.56;71.83;95937.75;4986189;28;20174;-70
2023/07/31 07:47:47;;;;;;;3.22;1.23;;;24.60;51.50;;;21.88;71.71;95932.22;4989692;28;20030;-71
2023/07/31 07:50:13;;;;;;;5.72;1.40;;;25.10;50.20;;;22.12;69.64;95929.88;4988170;28;20038;-71
2023/07/31 07:52:38;;;;;;;3.25;1.27;;;25.40;49.30;;;22.45;68.88;95925.09;4989864;28;20130;-71
2023/07/31 07:55:05;;;;;;;3.92;1.63;;;25.90;48.60;;;22.78;68.91;95921.84;4989499;28;20054;-71
2023/07/31 07:57:30;;;;;;;2.88;1.25;;;26.10;48.50;;;23.08;68.13;95923.69;4970625;28;20037;-71
2023/07/31 07:59:56;;;;;;;12.05;1.60;;;26.40;47.30;;;23.32;66.46;95918.56;4967779;28;20121;-72
2023/07/31 08:02:22;;;;;;;2.63;1.40;;;26.40;47.00;;;23.49;64.79;95904.78;4984413;28;20031;-71
2023/07/31 08:04:48;;;;;;;17.23;15.68;;;26.40;46.50;;;23.54;62.30;95899.41;4971391;28;20037;-71
2023/07/31 08:07:17;;;;;;;5.55;1.33;;;26.00;45.30;;;23.63;62.12;95905.03;4987547;28;20525;-71
2023/07/31 08:09:42;;;;;;;3.60;1.33;;;26.20;46.10;;;23.79;61.43;95902.00;4988838;28;20117;-71
2023/07/31 08:12:08;;;;;;;3.08;1.30;;;26.70;45.60;;;23.85;60.38;95888.53;4989493;28;20029;-70
2023/07/31 08:14:35;;;;;;;5.65;1.35;;;26.40;44.40;;;23.90;60.40;95891.97;4989091;28;20097;-70
2023/07/31 08:17:01;;;;;;;3.75;1.20;;;26.30;45.90;;;24.04;59.61;95892.19;4988051;28;20033;-71
2023/07/31 08:19:27;;;;;;;3.67;1.42;;;26.80;44.90;;;24.28;59.77;95889.59;4971133;28;20042;-71
2023/07/31 08:21:53;;;;;;;2.42;1.55;;;27.20;44.00;;;24.46;58.40;95880.06;4969391;28;20105;-71
2023/07/31 08:24:18;;;;;;;3.13;1.30;;;27.40;42.50;;;24.54;57.76;95876.75;5000267;28;20042;-71
2023/07/31 08:26:44;;;;;;;4.10;1.50;;;27.00;43.20;;;24.62;57.35;95878.81;4988915;28;20105;-72
2023/07/31 08:29:10;;;;;;;2.80;0.93;;;26.80;43.70;;;24.53;55.89;95880.53;4984524;28;20037;-71
2023/07/31 08:31:36;;;;;;;5.63;1.45;;;26.20;43.80;;;24.30;55.31;95860.56;4969848;28;20035;-70
2023/07/31 08:34:01;;;;;;;3.35;1.10;;;25.60;44.30;;;24.16;55.34;95862.25;4987154;28;20022;-71
2023/07/31 08:36:27;;;;;;;2.22;1.13;;;25.80;44.90;;;24.09;55.24;95866.06;4968053;28;20105;-71
2023/07/31 08:38:53;;;;;;;4.50;1.15;;;25.60;45.00;;;23.98;54.67;95864.50;4966504;28;20023;-71
2023/07/31 08:41:19;;;;;;;3.80;1.30;;;25.60;44.60;;;23.82;53.14;95860.34;4967929;28;20521;-71
2023/07/31 08:43:49;;;;;;;2.67;1.25;;;25.20;42.90;;;23.65;51.04;95849.97;4987334;28;20461;-70
2023/07/31 08:46:15;;;;;;;3.45;1.33;;;25.00;43.20;;;23.40;51.96;95852.75;4985535;28;20089;-72
2023/07/31 08:48:42;;;;;;;3.97;1.00;;;24.50;43.40;;;23.20;52.06;95854.44;4954871;28;20030;-71
2023/07/31 08:51:08;;;;;;;3.33;1.05;;;24.40;44.20;;;23.01;52.71;95858.81;4973125;28;20029;-70
2023/07/31 08:53:34;;;;;;;4.57;1.40;;;24.20;45.50;;;22.84;53.37;95859.13;4958816;28;20022;-72
2023/07/31 08:56:00;;;;;;;2.88;1.20;;;24.00;45.80;;;22.64;52.99;95855.66;4952708;28;20053;-70
2023/07/31 08:58:27;;;;;;;1.95;1.00;;;23.60;45.80;;;22.49;53.53;95873.38;4971132;28;20369;-70
2023/07/31 09:00:53;;;;;;;3.92;1.35;;;23.60;46.60;;;22.34;55.93;95894.81;4968861;28;20112;-71
2023/07/31 09:03:19;;;;;;;4.50;1.20;;;23.40;50.10;;;22.18;57.11;95899.38;4966414;28;20027;-71
2023/07/31 09:05:46;;;;;;;4.22;1.35;;;23.40;50.90;;;22.01;58.25;95912.97;4970883;28;20041;-73
2023/07/31 09:08:18;;;;;;;4.07;1.08;;;23.10;51.20;;;21.90;60.84;95927.41;4966080;28;20038;-70
2023/07/31 09:10:46;;;;;;;3.88;1.48;;;23.10;52.80;;;21.81;60.33;95917.50;4969826;28;20118;-70
2023/07/31 09:13:14;;;;;;;3.10;1.30;;;23.20;52.70;;;21.77;60.76;95916.41;4966422;28;20048;-70
2023/07/31 09:15:41;;;;;;;4.57;1.45;;;23.10;52.30;;;21.73;60.78;95901.91;4986857;28;20030;-71
2023/07/31 09:18:07;;;;;;;4.78;1.60;;;23.10;52.20;;;21.78;61.61;95912.66;4965850;28;20035;-71
2023/07/31 09:20:33;;;;;;;3.53;1.23;;;23.40;52.40;;;21.84;61.14;95896.34;4940430;28;20477;-71
2023/07/31 09:23:13;;;;;;;4.43;1.42;;;23.50;51.10;;;21.97;61.44;95895.84;4973475;28;20057;-71
2023/07/31 09:25:40;;;;;;;2.70;1.00;;;24.00;50.60;;;22.15;61.30;95891.84;4986159;28;20031;-71
2023/07/31 09:28:10;;;;;;;3.65;1.27;;;24.30;49.90;;;22.31;61.39;95890.00;4966959;28;20500;-71
2023/07/31 09:30:50;;;;;;;3.20;1.53;;;24.50;50.40;;;22.48;59.92;95879.81;4969048;28;20570;-72
2023/07/31 09:33:18;;;;;;;3.17;1.50;;;24.50;48.70;;;22.50;60.55;95874.97;4973425;28;20034;-71
2023/07/31 09:35:44;;;;;;;3.70;1.40;;;24.30;49.20;;;22.56;59.85;95876.56;4969300;28;20058;-71
2023/07/31 09:38:13;;;;;;;4.53;1.60;;;24.30;48.60;;;22.55;59.53;95874.16;4965479;28;20038;-71
2023/07/31 09:40:49;;;;;;;3.58;1.88;;;24.50;48.40;;;22.65;57.70;95862.63;4966932;28;20089;-71
2023/07/31 09:43:19;;;;;;;4.18;1.42;;;24.60;47.50;;;22.82;58.03;95863.16;4968393;28;20042;-71
2023/07/31 09:45:45;;;;;;;4.88;1.45;;;25.00;47.30;;;23.00;57.90;95870.63;4987857;28;20046;-71
2023/07/31 09:48:15;;;;;;;3.67;1.20;;;25.40;45.50;;;23.17;56.41;95849.63;4983240;28;20035;-70
2023/07/31 09:50:46;;;;;;;2.90;1.17;;;25.50;44.60;;;23.42;55.97;95850.59;4968491;28;20069;-72
2023/07/31 09:53:12;;;;;;;3.17;1.23;;;26.00;44.00;;;23.66;54.68;95840.81;4985074;28;20045;-70
2023/07/31 09:55:38;;;;;;;2.28;1.30;;;26.40;42.30;;;24.09;54.68;95833.00;4986325;28;20027;-71
2023/07/31 09:58:05;;;;;;;1.98;1.15;;;27.30;42.00;;;24.60;53.95;95819.16;4986901;28;20045;-71
2023/07/31 10:00:31;;;;;;;2.85;1.10;;;28.10;40.50;;;24.92;52.39;95819.34;4972056;28;20026;-71
2023/07/31 10:03:00;;;;;;;5.10;1.55;;;28.10;39.50;;;25.26;49.49;95796.88;4956584;28;20048;-71
2023/07/31 10:05:40;;;;;;;3.95;1.20;;;28.60;37.50;;;25.70;47.63;95771.53;4955700;28;20053;-70
2023/07/31 10:08:07;;;;;;;2.70;1.30;;;29.10;37.30;;;26.04;49.80;95790.94;4970466;28;20030;-70
2023/07/31 10:10:33;;;;;;;3.47;1.40;;;29.60;36.80;;;26.52;47.71;95775.31;4939494;28;20463;-69
2023/07/31 10:13:00;;;;;;;3.50;1.35;;;30.50;34.20;;;26.88;48.07;95766.50;4990156;28;20030;-70
2023/07/31 10:15:26;;;;;;;4.43;1.27;;;30.80;34.80;;;27.30;47.31;95751.88;4971652;28;20047;-70
2023/07/31 10:17:52;;;;;;;2.90;1.17;;;31.30;34.00;;;27.63;45.38;95724.72;4956884;28;20041;-70